createdAt,value
2022-09-11T00:01:37.850Z,99098.59
2022-09-11T00:04:06.335Z,99101.34
2022-09-11T00:06:34.800Z,99094.81
2022-09-11T00:09:05.647Z,99102.44
2022-09-11T00:11:39.624Z,99098.47
2022-09-11T00:14:08.015Z,99106.88
2022-09-11T00:16:39.181Z,99105.75
2022-09-11T00:19:09.556Z,99104.69
2022-09-11T00:21:37.676Z,99101.72
2022-09-11T00:24:06.454Z,99100.28
2022-09-11T00:26:35.826Z,99096.97
2022-09-11T00:29:04.336Z,99095.50
2022-09-11T00:31:32.875Z,99094.88
2022-09-11T00:34:01.134Z,99093.78
2022-09-11T00:36:31.683Z,99096.31
2022-09-11T00:39:01.293Z,99097.63
2022-09-11T00:41:31.996Z,99096.53
2022-09-11T00:44:04.008Z,99098.97
2022-09-11T00:46:38.465Z,99096.75
2022-09-11T00:49:17.570Z,99087.50
2022-09-11T00:51:48.874Z,99089.16
2022-09-11T00:54:21.578Z,99090.00
2022-09-11T00:56:50.744Z,99082.16
2022-09-11T00:59:25.260Z,99082.91
2022-09-11T01:01:53.668Z,99074.88
2022-09-11T01:04:23.285Z,99078.81
2022-09-11T01:06:52.880Z,99079.47
2022-09-11T01:09:21.144Z,99069.31
2022-09-11T01:11:56.899Z,99076.06
2022-09-11T01:14:39.448Z,99065.69
2022-09-11T01:17:18.268Z,99068.88
2022-09-11T01:20:10.403Z,99058.72
2022-09-11T01:22:59.189Z,99056.38
2022-09-11T01:25:32.588Z,99060.03
2022-09-11T01:28:09.738Z,99054.16
2022-09-11T01:30:42.060Z,99053.31
2022-09-11T01:33:22.891Z,99056.59
2022-09-11T01:36:00.976Z,99053.84
2022-09-11T01:38:35.835Z,99051.50
2022-09-11T01:41:09.082Z,99045.47
2022-09-11T01:43:43.685Z,99043.13
2022-09-11T01:46:17.633Z,99045.78
2022-09-11T01:48:49.345Z,99047.09
2022-09-11T01:51:23.899Z,99047.09
2022-09-11T01:53:53.384Z,99047.22
2022-09-11T01:56:25.353Z,99054.91
2022-09-11T01:58:59.636Z,99056.69
2022-09-11T02:01:33.835Z,99063.75
2022-09-11T02:04:07.531Z,99059.22
2022-09-11T02:06:42.326Z,99061.84
2022-09-11T02:09:15.501Z,99056.00
2022-09-11T02:11:45.276Z,99049.72
2022-09-11T02:14:21.357Z,99055.91
2022-09-11T02:16:53.692Z,99059.09
2022-09-11T02:19:26.200Z,99063.63
2022-09-11T02:21:54.531Z,99061.09
2022-09-11T02:24:23.536Z,99054.66
2022-09-11T02:26:59.600Z,99064.84
2022-09-11T02:29:29.072Z,99064.63
2022-09-11T02:31:57.389Z,99066.34
2022-09-11T02:34:28.108Z,99067.41
2022-09-11T02:37:11.704Z,99066.97
2022-09-11T02:39:55.020Z,99075.59
2022-09-11T02:42:40.238Z,99074.88
2022-09-11T02:45:24.758Z,99079.38
2022-09-11T02:48:04.323Z,99077.59
2022-09-11T02:50:40.805Z,99082.41
2022-09-11T02:53:16.007Z,99079.75
2022-09-11T02:56:15.060Z,99080.28
2022-09-11T02:58:48.318Z,99074.78
2022-09-11T03:01:18.575Z,99076.00
2022-09-11T03:03:47.743Z,99076.00
2022-09-11T03:06:19.271Z,99077.97
2022-09-11T03:08:47.852Z,99066.84
2022-09-11T03:11:17.798Z,99072.38
2022-09-11T03:13:46.876Z,99075.13
2022-09-11T03:16:14.876Z,99073.13
2022-09-11T03:18:44.327Z,99078.66
2022-09-11T03:21:12.566Z,99080.28
2022-09-11T03:23:40.970Z,99074.34
2022-09-11T03:26:09.278Z,99080.13
2022-09-11T03:28:37.548Z,99079.25
2022-09-11T03:31:06.211Z,99077.59
2022-09-11T03:33:35.081Z,99084.34
2022-09-11T03:36:04.852Z,99088.97
2022-09-11T03:38:33.027Z,99087.75
2022-09-11T03:41:02.859Z,99092.16
2022-09-11T03:43:31.211Z,99091.72
2022-09-11T03:46:00.643Z,99096.44
2022-09-11T03:48:29.349Z,99086.66
2022-09-11T03:50:59.089Z,99092.31
2022-09-11T03:53:28.647Z,99092.00
2022-09-11T03:55:56.632Z,99087.78
2022-09-11T03:58:24.594Z,99094.94
2022-09-11T04:00:52.707Z,99100.88
2022-09-11T04:03:20.819Z,99097.78
2022-09-11T04:05:59.537Z,99100.63
2022-09-11T04:08:33.562Z,99105.88
2022-09-11T04:11:03.740Z,99105.09
2022-09-11T04:13:33.616Z,99102.88
2022-09-11T04:16:03.425Z,99107.69
2022-09-11T04:18:32.527Z,99111.72
2022-09-11T04:21:00.521Z,99102.66
2022-09-11T04:23:30.317Z,99105.41
2022-09-11T04:25:58.383Z,99114.03
2022-09-11T04:28:26.343Z,99103.09
2022-09-11T04:30:54.777Z,99095.69
2022-09-11T04:33:22.933Z,99102.38
2022-09-11T04:35:50.893Z,99102.75
2022-09-11T04:38:19.650Z,99097.53
2022-09-11T04:40:49.948Z,99091.41
2022-09-11T04:43:18.136Z,99092.78
2022-09-11T04:45:46.157Z,99091.41
2022-09-11T04:48:14.142Z,99097.59
2022-09-11T04:50:42.469Z,99091.56
2022-09-11T04:53:10.464Z,99102.50
2022-09-11T04:55:38.447Z,99103.19
2022-09-11T04:58:07.796Z,99100.00
2022-09-11T05:00:35.896Z,99103.00
2022-09-11T05:03:03.929Z,99095.75
2022-09-11T05:05:31.923Z,99103.81
2022-09-11T05:07:59.937Z,99107.28
2022-09-11T05:10:28.935Z,99112.94
2022-09-11T05:12:57.003Z,99109.81
2022-09-11T05:15:26.429Z,99102.91
2022-09-11T05:17:54.775Z,99108.28
2022-09-11T05:20:22.793Z,99109.28
2022-09-11T05:22:54.013Z,99107.66
2022-09-11T05:25:22.082Z,99106.69
2022-09-11T05:27:50.223Z,99109.00
2022-09-11T05:30:18.524Z,99109.34
2022-09-11T05:32:48.131Z,99114.03
2022-09-11T05:35:16.972Z,99102.75
2022-09-11T05:37:44.966Z,99115.16
2022-09-11T05:40:13.477Z,99106.22
2022-09-11T05:42:41.518Z,99103.66
2022-09-11T05:45:10.319Z,99107.47
2022-09-11T05:47:38.954Z,99110.34
2022-09-11T05:50:09.703Z,99102.94
2022-09-11T05:52:38.337Z,99106.25
2022-09-11T05:55:07.054Z,99109.91
2022-09-11T05:57:35.030Z,99103.94
2022-09-11T06:00:04.063Z,99106.78
2022-09-11T06:02:32.178Z,99110.78
2022-09-11T06:05:00.256Z,99111.97
2022-09-11T06:07:29.797Z,99115.50
2022-09-11T06:10:02.941Z,99112.94
2022-09-11T06:12:31.721Z,99109.22
2022-09-11T06:14:59.777Z,99115.25
2022-09-11T06:17:28.376Z,99110.38
2022-09-11T06:19:56.450Z,99114.25
2022-09-11T06:22:24.445Z,99111.88
2022-09-11T06:24:53.869Z,99120.63
2022-09-11T06:27:21.937Z,99116.44
2022-09-11T06:29:50.398Z,99117.66
2022-09-11T06:32:19.985Z,99119.09
2022-09-11T06:34:48.031Z,99129.00
2022-09-11T06:37:16.031Z,99129.50
2022-09-11T06:39:44.030Z,99121.22
2022-09-11T06:42:13.506Z,99126.03
2022-09-11T06:44:42.042Z,99109.97
2022-09-11T06:47:10.005Z,99113.31
2022-09-11T06:49:38.078Z,99124.28
2022-09-11T06:52:06.088Z,99113.97
2022-09-11T06:54:34.122Z,99117.13
2022-09-11T06:57:02.256Z,99117.97
2022-09-11T06:59:32.262Z,99124.75
2022-09-11T07:02:01.052Z,99134.56
2022-09-11T07:04:29.068Z,99124.00
2022-09-11T07:06:57.188Z,99123.56
2022-09-11T07:09:25.185Z,99127.41
2022-09-11T07:11:53.959Z,99122.19
2022-09-11T07:14:23.420Z,99135.94
2022-09-11T07:16:55.980Z,99129.50
2022-09-11T07:19:25.010Z,99128.56
2022-09-11T07:21:53.051Z,99134.00
2022-09-11T07:24:21.286Z,99144.78
2022-09-11T07:26:49.302Z,99139.00
2022-09-11T07:29:18.031Z,99137.56
2022-09-11T07:31:46.635Z,99136.94
2022-09-11T07:34:15.982Z,99135.59
2022-09-11T07:36:45.537Z,99137.44
2022-09-11T07:39:13.608Z,99136.25
2022-09-11T07:41:41.573Z,99136.44
2022-09-11T07:44:09.855Z,99138.63
2022-09-11T07:46:41.602Z,99141.56
2022-09-11T07:49:10.245Z,99138.84
2022-09-11T07:51:40.448Z,99140.22
2022-09-11T07:54:08.837Z,99144.66
2022-09-11T07:56:36.938Z,99142.38
2022-09-11T07:59:08.994Z,99140.69
2022-09-11T08:01:37.050Z,99152.41
2022-09-11T08:04:07.162Z,99141.03
2022-09-11T08:06:37.271Z,99137.66
2022-09-11T08:09:09.099Z,99142.16
2022-09-11T08:11:39.133Z,99136.56
2022-09-11T08:14:07.442Z,99139.81
2022-09-11T08:16:36.383Z,99137.94
2022-09-11T08:19:05.379Z,99134.00
2022-09-11T08:21:34.085Z,99121.31
2022-09-11T08:24:03.975Z,99135.81
2022-09-11T08:26:37.236Z,99124.56
2022-09-11T08:29:06.495Z,99117.94
2022-09-11T08:31:35.385Z,99110.53
2022-09-11T08:34:03.575Z,99121.81
2022-09-11T08:36:31.545Z,99109.59
2022-09-11T08:39:02.878Z,99105.25
2022-09-11T08:41:41.126Z,99102.63
2022-09-11T08:44:17.980Z,99102.47
2022-09-11T08:46:49.224Z,99093.13
2022-09-11T08:49:24.462Z,99086.47
2022-09-11T08:51:54.642Z,99101.44
2022-09-11T08:54:29.064Z,99096.94
2022-09-11T08:57:12.287Z,99090.84
2022-09-11T08:59:58.013Z,99085.09
2022-09-11T09:02:51.033Z,99076.59
2022-09-11T09:05:29.186Z,99073.81
2022-09-11T09:08:09.936Z,99079.66
2022-09-11T09:10:52.224Z,99068.50
2022-09-11T09:13:46.636Z,99075.22
2022-09-11T09:16:29.395Z,99068.53
2022-09-11T09:19:04.452Z,99073.34
2022-09-11T09:21:38.478Z,99074.88
2022-09-11T09:24:19.463Z,99066.22
2022-09-11T09:26:52.846Z,99057.41
2022-09-11T09:29:24.456Z,99063.06
2022-09-11T09:31:56.619Z,99057.81
2022-09-11T09:34:27.713Z,99053.00
2022-09-11T09:37:03.411Z,99056.28
2022-09-11T09:39:32.004Z,99050.34
2022-09-11T09:42:13.521Z,99058.00
2022-09-11T09:45:01.449Z,99043.78
2022-09-11T09:47:30.939Z,99045.06
2022-09-11T09:49:59.524Z,99039.28
2022-09-11T09:52:36.101Z,99041.31
2022-09-11T09:55:06.825Z,99034.84
2022-09-11T09:57:37.128Z,99036.13
2022-09-11T10:00:16.017Z,99032.06
2022-09-11T10:02:45.521Z,99032.06
2022-09-11T10:05:27.818Z,99023.28
2022-09-11T10:07:58.619Z,99030.72
2022-09-11T10:10:30.132Z,99029.84
2022-09-11T10:13:18.161Z,99022.66
2022-09-11T10:15:50.310Z,99018.44
2022-09-11T10:18:24.466Z,99016.78
2022-09-11T10:20:52.921Z,99021.09
2022-09-11T10:23:24.713Z,99012.72
2022-09-11T10:25:53.341Z,99016.66
2022-09-11T10:28:29.347Z,99013.09
2022-09-11T10:31:02.509Z,99021.97
2022-09-11T10:33:33.064Z,99008.41
2022-09-11T10:36:04.207Z,99017.88
2022-09-11T10:38:39.286Z,99004.16
2022-09-11T10:41:19.037Z,98999.75
2022-09-11T10:43:50.806Z,98996.00
2022-09-11T10:46:39.668Z,98983.66
2022-09-11T10:49:18.666Z,98986.94
2022-09-11T10:52:01.231Z,98986.00
2022-09-11T10:54:44.602Z,98982.69
2022-09-11T10:57:19.110Z,98987.59
2022-09-11T11:00:13.397Z,98987.25
2022-09-11T11:02:45.598Z,98982.88
2022-09-11T11:05:21.483Z,98983.56
2022-09-11T11:08:19.526Z,98985.13
2022-09-11T11:11:12.766Z,98995.03
2022-09-11T11:14:05.723Z,98980.81
2022-09-11T11:16:44.179Z,98992.78
2022-09-11T11:19:43.644Z,98981.91
2022-09-11T11:22:24.778Z,98979.19
2022-09-11T11:25:08.554Z,98976.34
2022-09-11T11:28:01.595Z,98965.94
2022-09-11T11:30:35.229Z,98970.59
2022-09-11T11:33:32.229Z,98961.72
2022-09-11T11:36:05.491Z,98962.47
2022-09-11T11:38:40.702Z,98959.03
2022-09-11T11:41:14.428Z,98951.19
2022-09-11T11:43:45.209Z,98949.50
2022-09-11T11:46:19.495Z,98949.38
2022-09-11T11:48:54.692Z,98944.09
2022-09-11T11:51:28.440Z,98935.44
2022-09-11T11:54:04.142Z,98933.44
2022-09-11T11:56:41.122Z,98920.38
2022-09-11T11:59:15.998Z,98923.81
2022-09-11T12:01:48.311Z,98915.97
2022-09-11T12:04:33.993Z,98913.28
2022-09-11T12:07:05.809Z,98919.53
2022-09-11T12:09:34.192Z,98912.75
2022-09-11T12:12:08.051Z,98912.97
2022-09-11T12:14:36.252Z,98911.81
2022-09-11T12:17:20.267Z,98925.72
2022-09-11T12:20:17.503Z,98912.50
2022-09-11T12:22:48.889Z,98908.16
2022-09-11T12:26:05.493Z,98905.50
2022-09-11T12:28:35.852Z,98909.25
2022-09-11T12:31:07.050Z,98908.72
2022-09-11T12:33:55.914Z,98897.53
2022-09-11T12:36:33.953Z,98900.66
2022-09-11T12:39:07.630Z,98883.94
2022-09-11T12:41:37.851Z,98890.69
2022-09-11T12:44:06.538Z,98901.09
2022-09-11T12:47:14.654Z,98898.03
2022-09-11T12:49:52.557Z,98886.56
2022-09-11T12:52:31.988Z,98892.91
2022-09-11T12:55:05.680Z,98890.63
2022-09-11T12:57:37.382Z,98891.47
2022-09-11T13:00:09.595Z,98894.28
2022-09-11T13:02:40.623Z,98890.84
2022-09-11T13:05:18.737Z,98892.56
2022-09-11T13:07:50.838Z,98906.56
2022-09-11T13:10:33.360Z,98892.84
2022-09-11T13:13:03.917Z,98889.81
2022-09-11T13:15:43.239Z,98885.28
2022-09-11T13:18:33.083Z,98879.75
2022-09-11T13:21:14.815Z,98881.75
2022-09-11T13:23:43.694Z,98898.25
2022-09-11T13:26:20.889Z,98885.34
2022-09-11T13:28:51.625Z,98873.53
2022-09-11T13:31:24.074Z,98869.16
2022-09-11T13:33:53.880Z,98870.66
2022-09-11T13:36:25.132Z,98860.72
2022-09-11T13:38:58.263Z,98861.69
2022-09-11T13:41:30.836Z,98852.34
2022-09-11T13:44:00.798Z,98860.56
2022-09-11T13:46:31.495Z,98856.81
2022-09-11T13:49:15.772Z,98857.84
2022-09-11T13:51:46.370Z,98868.31
2022-09-11T13:54:18.470Z,98853.91
2022-09-11T13:57:11.413Z,98859.00
2022-09-11T13:59:43.088Z,98859.56
2022-09-11T14:02:56.168Z,98855.53
2022-09-11T14:05:26.696Z,98850.47
2022-09-11T14:08:01.237Z,98843.56
2022-09-11T14:10:33.265Z,98839.69
2022-09-11T14:13:15.232Z,98838.50
2022-09-11T14:15:49.134Z,98843.31
2022-09-11T14:18:27.138Z,98839.94
2022-09-11T14:20:57.108Z,98837.88
2022-09-11T14:23:27.556Z,98841.38
2022-09-11T14:26:14.881Z,98835.81
2022-09-11T14:29:04.353Z,98843.94
2022-09-11T14:31:35.994Z,98844.09
2022-09-11T14:34:12.417Z,98840.03
2022-09-11T14:36:44.200Z,98835.72
2022-09-11T14:39:17.173Z,98837.59
2022-09-11T14:41:46.148Z,98829.22
2022-09-11T14:44:18.236Z,98831.25
2022-09-11T14:46:46.251Z,98835.84
2022-09-11T14:49:15.424Z,98834.06
2022-09-11T14:51:43.983Z,98822.94
2022-09-11T14:54:17.227Z,98821.66
2022-09-11T14:56:46.880Z,98814.28
2022-09-11T14:59:16.391Z,98820.59
2022-09-11T15:01:45.316Z,98813.25
2022-09-11T15:04:19.590Z,98814.00
2022-09-11T15:06:50.435Z,98817.66
2022-09-11T15:09:18.540Z,98809.81
2022-09-11T15:11:46.544Z,98804.19
2022-09-11T15:14:32.570Z,98795.25
2022-09-11T15:17:08.396Z,98792.44
2022-09-11T15:19:37.779Z,98791.94
2022-09-11T15:22:06.755Z,98792.91
2022-09-11T15:24:35.715Z,98780.75
2022-09-11T15:27:03.893Z,98783.19
2022-09-11T15:29:34.559Z,98780.38
2022-09-11T15:32:03.839Z,98776.50
2022-09-11T15:34:33.424Z,98774.09
2022-09-11T15:37:01.484Z,98774.00
2022-09-11T15:39:29.754Z,98777.16
2022-09-11T15:41:58.233Z,98771.78
2022-09-11T15:44:28.715Z,98781.16
2022-09-11T15:46:59.728Z,98779.34
2022-09-11T15:49:30.193Z,98768.25
2022-09-11T15:51:59.495Z,98779.41
2022-09-11T15:54:29.537Z,98775.41
2022-09-11T15:56:57.661Z,98773.13
2022-09-11T15:59:25.775Z,98771.75
2022-09-11T16:01:53.992Z,98773.69
2022-09-11T16:04:28.350Z,98775.00
2022-09-11T16:06:56.650Z,98773.44
2022-09-11T16:09:26.512Z,98779.66
2022-09-11T16:11:56.171Z,98789.00
2022-09-11T16:14:27.317Z,98783.91
2022-09-11T16:16:58.318Z,98789.06
2022-09-11T16:19:29.361Z,98780.97
2022-09-11T16:21:59.814Z,98783.41
2022-09-11T16:24:29.341Z,98780.97
2022-09-11T16:26:57.592Z,98782.84
2022-09-11T16:29:49.322Z,98785.88
2022-09-11T16:32:28.978Z,98782.13
2022-09-11T16:34:59.815Z,98784.19
2022-09-11T16:37:28.309Z,98782.75
2022-09-11T16:39:56.988Z,98785.34
2022-09-11T16:42:26.556Z,98779.41
2022-09-11T16:44:54.685Z,98773.66
2022-09-11T16:47:22.884Z,98785.31
2022-09-11T16:50:08.036Z,98779.84
2022-09-11T16:52:39.222Z,98769.28
2022-09-11T16:55:09.715Z,98776.66
2022-09-11T16:57:38.030Z,98773.03
2022-09-11T17:00:07.489Z,98769.34
2022-09-11T17:02:35.721Z,98785.13
2022-09-11T17:05:06.126Z,98782.25
2022-09-11T17:07:34.183Z,98787.75
2022-09-11T17:10:04.298Z,98790.63
2022-09-11T17:12:32.821Z,98804.03
2022-09-11T17:15:00.927Z,98806.13
2022-09-11T17:17:29.065Z,98804.75
2022-09-11T17:19:59.428Z,98817.56
2022-09-11T17:22:30.012Z,98817.41
2022-09-11T17:24:58.093Z,98821.09
2022-09-11T17:27:27.914Z,98828.97
2022-09-11T17:29:57.904Z,98833.34
2022-09-11T17:32:28.648Z,98836.88
2022-09-11T17:34:58.690Z,98845.84
2022-09-11T17:37:27.814Z,98852.94
2022-09-11T17:39:56.279Z,98862.38
2022-09-11T17:42:24.573Z,98870.56
2022-09-11T17:44:54.486Z,98887.28
2022-09-11T17:47:22.971Z,98906.53
2022-09-11T17:49:51.792Z,98937.81
2022-09-11T17:52:20.569Z,98965.38
2022-09-11T17:54:49.267Z,98965.28
2022-09-11T17:57:17.965Z,98952.53
2022-09-11T17:59:50.126Z,98965.25
2022-09-11T18:02:21.563Z,98971.75
2022-09-11T18:04:49.998Z,98980.38
2022-09-11T18:07:19.542Z,98983.25
2022-09-11T18:09:49.054Z,98993.25
2022-09-11T18:12:19.754Z,98991.56
2022-09-11T18:14:48.514Z,98997.88
2022-09-11T18:17:17.059Z,99004.28
2022-09-11T18:19:47.753Z,99007.28
2022-09-11T18:22:17.102Z,99008.59
2022-09-11T18:24:45.960Z,99017.22
2022-09-11T18:27:14.625Z,99030.59
2022-09-11T18:29:43.453Z,99037.19
2022-09-11T18:32:12.042Z,99054.22
2022-09-11T18:34:41.229Z,99040.50
2022-09-11T18:37:11.717Z,99038.28
2022-09-11T18:39:40.522Z,99034.31
2022-09-11T18:42:09.223Z,99046.69
2022-09-11T18:44:37.791Z,99039.75
2022-09-11T18:47:06.724Z,99029.59
2022-09-11T18:49:35.456Z,99042.78
2022-09-11T18:52:04.967Z,99029.97
2022-09-11T18:54:35.362Z,99030.09
2022-09-11T18:57:04.278Z,99035.75
2022-09-11T18:59:33.578Z,99043.00
2022-09-11T19:02:02.511Z,99050.06
2022-09-11T19:04:31.821Z,99056.75
2022-09-11T19:07:00.540Z,99051.88
2022-09-11T19:09:29.525Z,99052.72
2022-09-11T19:12:00.475Z,99064.50
2022-09-11T19:14:29.332Z,99047.22
2022-09-11T19:17:00.126Z,99052.44
2022-09-11T19:19:29.076Z,99058.38
2022-09-11T19:21:57.824Z,99063.44
2022-09-11T19:24:28.660Z,99071.97
2022-09-11T19:27:00.213Z,99067.59
2022-09-11T19:29:29.191Z,99080.16
2022-09-11T19:31:57.971Z,99073.38
2022-09-11T19:34:26.463Z,99077.00
2022-09-11T19:36:55.508Z,99095.75
2022-09-11T19:39:24.858Z,99095.81
2022-09-11T19:41:53.633Z,99088.13
2022-09-11T19:44:25.383Z,99093.88
2022-09-11T19:46:56.307Z,99096.19
2022-09-11T19:49:25.149Z,99100.75
2022-09-11T19:51:54.902Z,99094.59
2022-09-11T19:54:23.582Z,99092.31
2022-09-11T19:56:51.837Z,99094.34
2022-09-11T19:59:20.883Z,99095.56
2022-09-11T20:01:50.593Z,99101.47
2022-09-11T20:04:19.240Z,99094.88
2022-09-11T20:09:32.115Z,99100.88
2022-09-11T20:12:01.548Z,99113.06
2022-09-11T20:14:30.487Z,99110.41
2022-09-11T20:17:01.147Z,99107.78
2022-09-11T20:19:30.237Z,99102.75
2022-09-11T20:22:00.343Z,99108.75
2022-09-11T20:24:28.828Z,99110.75
2022-09-11T20:26:56.856Z,99111.56
2022-09-11T20:29:25.581Z,99115.03
2022-09-11T20:31:56.012Z,99106.72
2022-09-11T20:34:28.166Z,99108.19
2022-09-11T20:37:00.844Z,99105.59
2022-09-11T20:39:29.113Z,99102.69
2022-09-11T20:41:57.217Z,99104.28
2022-09-11T20:44:25.417Z,99092.97
2022-09-11T20:46:53.876Z,99097.31
2022-09-11T20:49:21.897Z,99104.72
2022-09-11T20:51:51.363Z,99107.09
2022-09-11T20:54:19.341Z,99106.47
2022-09-11T20:56:47.377Z,99096.47
2022-09-11T20:59:15.858Z,99095.84
2022-09-11T21:01:44.281Z,99091.28
2022-09-11T21:04:12.284Z,99088.97
2022-09-11T21:06:40.283Z,99090.59
2022-09-11T21:09:12.066Z,99092.63
2022-09-11T21:11:41.732Z,99090.66
2022-09-11T21:14:10.751Z,99083.63
2022-09-11T21:16:38.813Z,99088.78
2022-09-11T21:19:07.544Z,99086.56
2022-09-11T21:21:37.885Z,99082.31
2022-09-11T21:24:09.081Z,99084.72
2022-09-11T21:26:38.780Z,99084.38
2022-09-11T21:29:09.267Z,99095.69
2022-09-11T21:31:37.329Z,99090.19
2022-09-11T21:34:08.321Z,99087.06
2022-09-11T21:36:37.278Z,99084.28
2022-09-11T21:39:05.698Z,99080.38
2022-09-11T21:41:33.758Z,99079.13
2022-09-11T21:44:04.050Z,99084.97
2022-09-11T21:46:32.196Z,99079.81
2022-09-11T21:49:01.741Z,99075.53
2022-09-11T21:51:29.940Z,99066.88
2022-09-11T21:54:02.269Z,99067.31
2022-09-11T21:56:32.833Z,99059.44
2022-09-11T21:59:02.472Z,99070.38
2022-09-11T22:01:32.909Z,99070.31
2022-09-11T22:04:01.977Z,99070.69
2022-09-11T22:06:30.627Z,99070.25
2022-09-11T22:08:58.980Z,99077.00
2022-09-11T22:11:27.566Z,99067.97
2022-09-11T22:13:56.254Z,99072.66
2022-09-11T22:16:26.091Z,99071.44
2022-09-11T22:18:55.728Z,99069.00
2022-09-11T22:21:24.134Z,99072.53
2022-09-11T22:23:52.584Z,99070.22
2022-09-11T22:26:23.698Z,99080.31
2022-09-11T22:28:51.831Z,99077.47
2022-09-11T22:31:21.890Z,99081.41
2022-09-11T22:33:51.491Z,99081.25
2022-09-11T22:36:21.372Z,99085.03
2022-09-11T22:38:50.050Z,99088.03
2022-09-11T22:41:18.467Z,99089.09
2022-09-11T22:43:47.628Z,99084.84
2022-09-11T22:46:16.396Z,99085.50
2022-09-11T22:48:44.966Z,99089.09
2022-09-11T22:51:14.465Z,99085.91
2022-09-11T22:53:43.343Z,99085.88
2022-09-11T22:56:13.871Z,99084.00
2022-09-11T22:58:42.397Z,99089.84
2022-09-11T23:01:12.231Z,99082.75
2022-09-11T23:03:40.382Z,99085.19
2022-09-11T23:06:26.544Z,99093.00
2022-09-11T23:08:56.882Z,99088.31
2022-09-11T23:11:25.393Z,99087.03
2022-09-11T23:13:53.758Z,99089.41
2022-09-11T23:16:24.141Z,99100.38
2022-09-11T23:18:54.844Z,99104.72
2022-09-11T23:21:23.017Z,99103.97
2022-09-11T23:23:54.457Z,99091.78
2022-09-11T23:26:25.430Z,99099.44
2022-09-11T23:28:54.359Z,99097.00
2022-09-11T23:31:25.568Z,99098.56
2022-09-11T23:33:56.249Z,99094.72
2022-09-11T23:36:25.318Z,99097.66
2022-09-11T23:38:53.541Z,99096.56
2022-09-11T23:41:23.665Z,99094.59
2022-09-11T23:43:52.203Z,99098.19
2022-09-11T23:46:20.589Z,99086.38
2022-09-11T23:48:49.053Z,99098.94
2022-09-11T23:51:17.678Z,99091.09
2022-09-11T23:53:52.108Z,99089.56
2022-09-11T23:56:21.002Z,99092.81
2022-09-11T23:58:50.928Z,99087.66
